createdAt,value
2018-04-22T00:02:13.179Z,32.47
2018-04-22T00:04:39.481Z,25.70
2018-04-22T00:07:06.474Z,34.80
2018-04-22T00:09:32.715Z,31.80
2018-04-22T00:11:58.943Z,48.63
2018-04-22T00:14:25.195Z,29.30
2018-04-22T00:16:51.391Z,30.93
2018-04-22T00:19:17.612Z,26.20
2018-04-22T00:21:43.945Z,32.67
2018-04-22T00:24:10.203Z,29.90
2018-04-22T00:26:36.480Z,29.33
2018-04-22T00:29:07.656Z,26.73
2018-04-22T00:31:33.988Z,33.73
2018-04-22T00:34:00.234Z,34.83
2018-04-22T00:36:26.526Z,36.10
2018-04-22T00:38:53.085Z,41.70
2018-04-22T00:41:19.520Z,33.00
2018-04-22T00:43:45.886Z,27.60
2018-04-22T00:46:12.495Z,32.83
2018-04-22T00:48:38.926Z,31.20
2018-04-22T00:51:05.266Z,30.50
2018-04-22T00:53:43.740Z,30.20
2018-04-22T00:56:10.175Z,28.40
2018-04-22T00:58:36.478Z,29.13
2018-04-22T01:01:03.487Z,32.63
2018-04-22T01:03:29.820Z,29.83
2018-04-22T01:05:56.114Z,31.20
2018-04-22T01:08:22.319Z,31.30
2018-04-22T01:10:48.580Z,31.00
2018-04-22T01:13:14.844Z,30.43
2018-04-22T01:15:41.397Z,32.00
2018-04-22T01:18:07.717Z,27.53
2018-04-22T01:20:34.020Z,25.43
2018-04-22T01:23:00.367Z,31.53
2018-04-22T01:25:27.128Z,33.20
2018-04-22T01:27:54.236Z,31.87
2018-04-22T01:30:20.796Z,29.23
2018-04-22T01:32:47.243Z,32.43
2018-04-22T01:35:13.758Z,33.80
2018-04-22T01:37:40.749Z,37.90
2018-04-22T01:40:06.964Z,33.23
2018-04-22T01:42:33.208Z,35.73
2018-04-22T01:44:59.415Z,31.17
2018-04-22T01:47:25.724Z,37.93
2018-04-22T01:49:52.064Z,41.23
2018-04-22T01:52:18.380Z,37.47
2018-04-22T01:54:44.741Z,35.30
2018-04-22T01:57:11.011Z,33.80
2018-04-22T01:59:37.309Z,38.93
2018-04-22T02:02:03.600Z,27.63
2018-04-22T02:04:29.916Z,30.47
2018-04-22T02:06:56.159Z,34.20
2018-04-22T02:09:22.428Z,33.33
2018-04-22T02:11:48.656Z,34.87
2018-04-22T02:14:14.975Z,37.03
2018-04-22T02:16:42.029Z,36.17
2018-04-22T02:19:08.398Z,40.37
2018-04-22T02:21:34.669Z,33.87
2018-04-22T02:24:00.923Z,38.60
2018-04-22T02:26:27.225Z,38.83
2018-04-22T02:28:53.787Z,38.73
2018-04-22T02:31:20.839Z,37.97
2018-04-22T02:33:47.348Z,28.93
2018-04-22T02:36:14.164Z,37.17
2018-04-22T02:38:41.074Z,33.90
2018-04-22T02:41:09.089Z,36.00
2018-04-22T02:43:36.200Z,33.50
2018-04-22T02:46:02.407Z,31.70
2018-04-22T02:48:29.419Z,28.20
2018-04-22T02:50:59.447Z,32.23
2018-04-22T02:53:26.533Z,33.00
2018-04-22T02:55:54.596Z,32.63
2018-04-22T02:58:23.256Z,41.87
2018-04-22T03:00:50.094Z,34.87
2018-04-22T03:03:17.294Z,35.27
2018-04-22T03:05:44.524Z,31.23
2018-04-22T03:08:11.016Z,41.23
2018-04-22T03:10:37.319Z,35.67
2018-04-22T03:13:03.596Z,35.87
2018-04-22T03:15:29.967Z,35.33
2018-04-22T03:17:56.263Z,35.63
2018-04-22T03:20:22.556Z,33.27
2018-04-22T03:22:48.873Z,34.20
2018-04-22T03:25:15.520Z,33.97
2018-04-22T03:27:42.358Z,35.63
2018-04-22T03:30:09.517Z,31.50
2018-04-22T03:32:35.850Z,38.20
2018-04-22T03:35:02.055Z,41.03
2018-04-22T03:37:28.404Z,43.00
2018-04-22T03:39:54.631Z,42.57
2018-04-22T03:42:20.859Z,40.97
2018-04-22T03:44:47.095Z,41.43
2018-04-22T03:47:13.377Z,37.50
2018-04-22T03:49:39.688Z,41.53
2018-04-22T03:52:05.981Z,38.97
2018-04-22T03:54:32.272Z,44.83
2018-04-22T03:56:59.977Z,42.47
2018-04-22T03:59:26.400Z,43.53
2018-04-22T04:01:52.806Z,45.03
2018-04-22T04:04:19.254Z,44.90
2018-04-22T04:06:45.620Z,41.70
2018-04-22T04:09:12.621Z,47.17
2018-04-22T04:11:39.660Z,46.53
2018-04-22T04:14:05.990Z,42.93
2018-04-22T04:16:32.342Z,51.87
2018-04-22T04:19:11.067Z,51.27
2018-04-22T04:21:49.802Z,48.80
2018-04-22T04:24:38.040Z,47.53
2018-04-22T04:27:31.291Z,43.30
2018-04-22T04:29:57.790Z,53.13
2018-04-22T04:32:24.779Z,46.47
2018-04-22T04:34:51.015Z,48.37
2018-04-22T04:37:17.222Z,48.80
2018-04-22T04:39:43.402Z,54.73
2018-04-22T04:42:09.592Z,52.07
2018-04-22T04:44:35.778Z,55.50
2018-04-22T04:47:02.148Z,61.10
2018-04-22T04:49:29.167Z,53.20
2018-04-22T04:51:55.464Z,62.83
2018-04-22T04:54:21.709Z,56.87
2018-04-22T04:56:48.010Z,57.40
2018-04-22T04:59:14.334Z,53.20
2018-04-22T05:01:40.568Z,59.37
2018-04-22T05:04:06.779Z,63.17
2018-04-22T05:06:33.006Z,55.10
2018-04-22T05:08:59.236Z,60.00
2018-04-22T05:11:26.319Z,60.30
2018-04-22T05:13:52.527Z,63.80
2018-04-22T05:16:18.754Z,56.63
2018-04-22T05:18:44.990Z,59.10
2018-04-22T05:21:12.130Z,57.70
2018-04-22T05:23:39.190Z,46.77
2018-04-22T05:26:12.884Z,45.73
2018-04-22T05:28:39.373Z,48.20
2018-04-22T05:31:05.757Z,46.80
2018-04-22T05:33:34.047Z,52.03
2018-04-22T05:36:00.235Z,46.83
2018-04-22T05:38:32.736Z,43.30
2018-04-22T05:40:59.031Z,49.50
2018-04-22T05:43:25.238Z,55.63
2018-04-22T05:45:51.451Z,44.50
2018-04-22T05:48:17.671Z,41.93
2018-04-22T05:50:43.892Z,46.67
2018-04-22T05:53:10.813Z,44.53
2018-04-22T05:55:41.812Z,40.23
2018-04-22T05:58:08.291Z,50.10
2018-04-22T06:00:34.532Z,55.77
2018-04-22T06:03:01.573Z,40.80
2018-04-22T06:05:28.602Z,42.57
2018-04-22T06:07:54.861Z,56.73
2018-04-22T06:10:21.155Z,47.60
2018-04-22T06:12:47.464Z,44.80
2018-04-22T06:15:14.531Z,58.20
2018-04-22T06:17:41.604Z,46.03
2018-04-22T06:20:07.863Z,43.03
2018-04-22T06:22:34.133Z,42.10
2018-04-22T06:25:00.351Z,44.40
2018-04-22T06:27:26.625Z,48.13
2018-04-22T06:29:53.262Z,41.73
2018-04-22T06:32:19.537Z,47.43
2018-04-22T06:34:46.478Z,42.57
2018-04-22T06:37:13.107Z,42.10
2018-04-22T06:39:39.371Z,41.40
2018-04-22T06:42:05.670Z,46.57
2018-04-22T06:44:32.027Z,37.33
2018-04-22T06:46:58.279Z,39.93
2018-04-22T06:49:24.537Z,38.27
2018-04-22T06:51:50.860Z,40.90
2018-04-22T06:54:17.133Z,36.03
2018-04-22T06:56:43.478Z,43.70
2018-04-22T06:59:09.814Z,40.93
2018-04-22T07:01:36.102Z,39.87
2018-04-22T07:04:02.324Z,31.63
2018-04-22T07:06:29.413Z,37.10
2018-04-22T07:08:55.713Z,40.70
2018-04-22T07:11:21.938Z,40.53
2018-04-22T07:13:48.143Z,41.50
2018-04-22T07:16:14.397Z,45.33
2018-04-22T07:18:41.013Z,34.87
2018-04-22T07:21:07.347Z,52.17
2018-04-22T07:23:33.561Z,34.40
2018-04-22T07:26:00.188Z,36.40
2018-04-22T07:28:26.475Z,46.23
2018-04-22T07:30:53.432Z,34.90
2018-04-22T07:33:19.638Z,32.83
2018-04-22T07:35:46.148Z,35.63
2018-04-22T07:38:12.934Z,37.03
2018-04-22T07:40:39.295Z,34.17
2018-04-22T07:43:05.719Z,33.87
2018-04-22T07:45:31.944Z,31.67
2018-04-22T07:48:00.316Z,33.00
2018-04-22T07:50:26.538Z,36.43
2018-04-22T07:52:53.580Z,30.67
2018-04-22T07:55:19.777Z,30.87
2018-04-22T07:57:46.019Z,30.23
2018-04-22T08:00:12.255Z,32.10
2018-04-22T08:02:39.245Z,40.77
2018-04-22T08:05:05.657Z,43.07
2018-04-22T08:07:31.995Z,31.20
2018-04-22T08:09:58.211Z,27.57
2018-04-22T08:12:24.433Z,34.30
2018-04-22T08:14:50.744Z,31.70
2018-04-22T08:17:17.021Z,31.50
2018-04-22T08:19:43.244Z,32.77
2018-04-22T08:22:09.503Z,40.93
2018-04-22T08:24:35.792Z,28.20
2018-04-22T08:27:02.052Z,35.73
2018-04-22T08:29:30.339Z,29.80
2018-04-22T08:31:56.527Z,39.47
2018-04-22T08:34:23.512Z,31.07
2018-04-22T08:36:49.683Z,34.40
2018-04-22T08:39:15.889Z,25.27
2018-04-22T08:41:42.809Z,37.30
2018-04-22T08:44:09.034Z,33.07
2018-04-22T08:46:36.240Z,31.13
2018-04-22T08:49:02.519Z,34.10
2018-04-22T08:51:28.800Z,28.07
2018-04-22T08:53:55.055Z,32.23
2018-04-22T08:56:21.507Z,28.13
2018-04-22T08:58:47.765Z,26.93
2018-04-22T09:01:13.991Z,30.20
2018-04-22T09:03:40.197Z,34.83
2018-04-22T09:06:06.434Z,33.00
2018-04-22T09:08:32.624Z,28.40
2018-04-22T09:10:59.588Z,27.60
2018-04-22T09:13:25.851Z,33.33
2018-04-22T09:15:52.082Z,28.73
2018-04-22T09:18:18.451Z,28.93
2018-04-22T09:20:44.892Z,27.93
2018-04-22T09:23:11.216Z,29.50
2018-04-22T09:25:37.639Z,28.47
2018-04-22T09:28:03.874Z,19.93
2018-04-22T09:30:30.280Z,28.60
2018-04-22T09:32:56.526Z,29.40
2018-04-22T09:35:22.809Z,24.03
2018-04-22T09:37:49.098Z,31.37
2018-04-22T09:40:15.358Z,27.67
2018-04-22T09:42:41.644Z,31.07
2018-04-22T09:45:08.741Z,28.30
2018-04-22T09:47:35.364Z,26.77
2018-04-22T09:50:01.644Z,24.10
2018-04-22T09:52:28.456Z,26.67
2018-04-22T09:54:54.707Z,22.43
2018-04-22T09:57:20.955Z,26.10
2018-04-22T09:59:47.271Z,26.50
2018-04-22T10:02:15.350Z,22.23
2018-04-22T10:04:46.323Z,25.20
2018-04-22T10:07:12.585Z,20.23
2018-04-22T10:09:38.844Z,25.90
2018-04-22T10:12:05.211Z,24.00
2018-04-22T10:14:31.426Z,26.57
2018-04-22T10:16:57.664Z,30.00
2018-04-22T10:19:23.996Z,22.40
2018-04-22T10:21:50.324Z,22.80
2018-04-22T10:24:16.558Z,26.67
2018-04-22T10:26:45.038Z,32.03
2018-04-22T10:29:20.985Z,26.97
2018-04-22T10:31:47.435Z,48.00
2018-04-22T10:34:15.300Z,25.93
2018-04-22T10:36:41.865Z,21.07
2018-04-22T10:39:09.221Z,22.70
2018-04-22T10:41:36.187Z,28.53
2018-04-22T10:44:02.465Z,18.37
2018-04-22T10:46:29.569Z,24.67
2018-04-22T10:48:56.514Z,22.23
2018-04-22T10:51:33.159Z,18.00
2018-04-22T10:53:59.996Z,16.23
2018-04-22T10:56:29.996Z,27.53
2018-04-22T10:58:56.446Z,21.80
2018-04-22T11:01:22.731Z,23.50
2018-04-22T11:03:52.539Z,16.30
2018-04-22T11:06:19.462Z,19.33
2018-04-22T11:08:46.362Z,20.10
2018-04-22T11:11:16.995Z,23.57
2018-04-22T11:13:43.355Z,28.93
2018-04-22T11:16:10.589Z,19.73
2018-04-22T11:18:36.908Z,12.93
2018-04-22T11:21:03.147Z,16.80
2018-04-22T11:23:29.776Z,25.03
2018-04-22T11:26:00.423Z,20.97
2018-04-22T11:28:26.622Z,24.83
2018-04-22T11:30:53.959Z,21.20
2018-04-22T11:33:20.128Z,22.03
2018-04-22T11:35:46.517Z,14.47
2018-04-22T11:38:13.554Z,22.30
2018-04-22T11:40:39.943Z,21.60
2018-04-22T11:43:06.328Z,23.50
2018-04-22T11:45:33.332Z,19.30
2018-04-22T11:47:59.692Z,16.53
2018-04-22T11:50:25.926Z,25.73
2018-04-22T11:52:52.167Z,20.37
2018-04-22T11:55:18.354Z,18.93
2018-04-22T11:57:44.627Z,23.47
2018-04-22T12:00:11.665Z,23.27
2018-04-22T12:02:38.703Z,25.07
2018-04-22T12:05:04.903Z,19.60
2018-04-22T12:07:32.263Z,20.57
2018-04-22T12:09:58.503Z,15.53
2018-04-22T12:12:24.821Z,29.60
2018-04-22T12:14:51.942Z,26.33
2018-04-22T12:17:18.315Z,16.97
2018-04-22T12:19:44.628Z,15.70
2018-04-22T12:22:10.811Z,20.07
2018-04-22T12:24:37.084Z,20.20
2018-04-22T12:27:03.333Z,13.17
2018-04-22T12:29:30.201Z,14.20
2018-04-22T12:31:56.406Z,12.57
2018-04-22T12:34:22.644Z,13.10
2018-04-22T12:36:49.561Z,15.03
2018-04-22T12:39:16.901Z,14.07
2018-04-22T12:41:43.526Z,22.43
2018-04-22T12:44:10.473Z,10.27
2018-04-22T12:46:36.750Z,20.30
2018-04-22T12:49:03.005Z,14.90
2018-04-22T12:51:29.195Z,18.00
2018-04-22T12:53:55.457Z,11.57
2018-04-22T12:56:21.833Z,20.40
2018-04-22T12:58:48.199Z,31.87
2018-04-22T13:01:14.444Z,24.73
2018-04-22T13:03:40.669Z,12.23
2018-04-22T13:06:06.935Z,22.10
2018-04-22T13:08:33.132Z,18.10
2018-04-22T13:10:59.370Z,29.53
2018-04-22T13:13:26.641Z,16.03
2018-04-22T13:15:52.850Z,11.27
2018-04-22T13:18:19.030Z,10.40
2018-04-22T13:20:45.275Z,16.10
2018-04-22T13:23:11.463Z,11.40
2018-04-22T13:25:38.450Z,7.83
2018-04-22T13:28:04.682Z,16.53
2018-04-22T13:30:30.950Z,12.03
2018-04-22T13:32:57.235Z,16.33
2018-04-22T13:35:24.281Z,8.23
2018-04-22T13:37:52.963Z,9.27
2018-04-22T13:40:19.250Z,7.43
2018-04-22T13:42:46.303Z,11.77
2018-04-22T13:45:12.573Z,10.97
2018-04-22T13:47:38.844Z,14.63
2018-04-22T13:50:05.112Z,10.80
2018-04-22T13:52:31.335Z,13.53
2018-04-22T13:54:58.760Z,10.40
2018-04-22T13:57:27.138Z,13.13
2018-04-22T13:59:55.425Z,12.07
2018-04-22T14:02:23.269Z,11.70
2018-04-22T14:04:49.490Z,17.77
2018-04-22T14:07:16.874Z,10.70
2018-04-22T14:09:44.650Z,11.63
2018-04-22T14:12:11.988Z,11.80
2018-04-22T14:14:38.179Z,12.40
2018-04-22T14:17:04.435Z,13.43
2018-04-22T14:19:31.650Z,9.60
2018-04-22T14:21:57.864Z,10.07
2018-04-22T14:24:24.068Z,10.43
2018-04-22T14:26:50.299Z,18.33
2018-04-22T14:29:16.507Z,14.97
2018-04-22T14:31:48.923Z,11.33
2018-04-22T14:34:18.347Z,13.97
2018-04-22T14:36:44.516Z,8.13
2018-04-22T14:39:11.833Z,8.93
2018-04-22T14:41:43.582Z,9.40
2018-04-22T14:44:26.487Z,11.83
2018-04-22T14:46:53.472Z,18.73
2018-04-22T14:49:19.688Z,8.63
2018-04-22T14:51:46.627Z,29.47
2018-04-22T14:54:12.848Z,13.03
2018-04-22T14:56:40.128Z,13.93
2018-04-22T14:59:06.342Z,8.80
2018-04-22T15:01:32.553Z,11.00
2018-04-22T15:03:58.742Z,15.83
2018-04-22T15:06:27.023Z,18.50
2018-04-22T15:08:53.374Z,13.77
2018-04-22T15:11:19.547Z,18.93
2018-04-22T15:13:46.493Z,14.57
2018-04-22T15:16:12.690Z,13.80
2018-04-22T15:18:38.887Z,16.10
2018-04-22T15:21:05.490Z,11.83
2018-04-22T15:23:31.780Z,16.47
2018-04-22T15:25:58.823Z,11.27
2018-04-22T15:28:25.275Z,15.03
2018-04-22T15:30:54.305Z,10.20
2018-04-22T15:33:21.251Z,11.27
2018-04-22T15:35:47.498Z,15.67
2018-04-22T15:38:13.694Z,14.30
2018-04-22T15:40:40.009Z,13.17
2018-04-22T15:43:06.319Z,13.40
2018-04-22T15:45:33.292Z,16.27
2018-04-22T15:47:59.508Z,10.80
2018-04-22T15:50:25.783Z,9.37
2018-04-22T15:52:52.065Z,7.50
2018-04-22T15:55:18.288Z,18.23
2018-04-22T15:57:44.545Z,8.83
2018-04-22T16:00:10.839Z,13.27
2018-04-22T16:02:37.832Z,14.97
2018-04-22T16:05:04.046Z,12.10
2018-04-22T16:07:31.095Z,8.17
2018-04-22T16:09:58.134Z,14.27
2018-04-22T16:12:24.490Z,21.53
2018-04-22T16:14:50.696Z,12.57
2018-04-22T16:17:17.179Z,13.20
2018-04-22T16:19:43.403Z,8.77
2018-04-22T16:22:09.695Z,10.53
2018-04-22T16:24:35.889Z,11.83
2018-04-22T16:27:02.111Z,10.87
2018-04-22T16:29:28.335Z,6.47
2018-04-22T16:31:55.439Z,8.27
2018-04-22T16:34:21.708Z,14.40
2018-04-22T16:36:47.949Z,19.23
2018-04-22T16:39:14.918Z,16.17
2018-04-22T16:41:41.160Z,7.70
2018-04-22T16:44:07.433Z,8.93
2018-04-22T16:46:33.795Z,10.80
2018-04-22T16:49:00.066Z,10.73
2018-04-22T16:51:26.253Z,5.63
2018-04-22T16:53:52.485Z,8.10
2018-04-22T16:56:18.898Z,10.37
2018-04-22T16:58:45.658Z,5.33
2018-04-22T17:01:11.991Z,10.13
2018-04-22T17:03:38.194Z,14.37
2018-04-22T17:06:04.439Z,8.27
2018-04-22T17:08:30.666Z,14.33
2018-04-22T17:11:00.269Z,6.07
2018-04-22T17:13:26.426Z,13.30
2018-04-22T17:15:52.652Z,6.10
2018-04-22T17:18:18.866Z,9.80
2018-04-22T17:20:46.266Z,6.90
2018-04-22T17:23:13.152Z,17.17
2018-04-22T17:25:41.211Z,17.57
2018-04-22T17:28:07.383Z,7.27
2018-04-22T17:30:33.582Z,15.23
2018-04-22T17:33:00.311Z,15.27
2018-04-22T17:35:26.912Z,19.03
2018-04-22T17:37:53.223Z,6.90
2018-04-22T17:40:21.573Z,7.73
2018-04-22T17:42:58.818Z,10.30
2018-04-22T17:45:29.600Z,11.60
2018-04-22T17:48:00.718Z,12.40
2018-04-22T17:50:30.696Z,19.40
2018-04-22T17:53:01.337Z,19.33
2018-04-22T17:55:27.560Z,10.73
2018-04-22T17:58:00.848Z,11.53
2018-04-22T18:00:30.232Z,10.80
2018-04-22T18:03:00.124Z,6.20
2018-04-22T18:05:33.134Z,17.23
2018-04-22T18:08:00.645Z,9.23
2018-04-22T18:10:32.904Z,12.27
2018-04-22T18:13:00.454Z,16.10
2018-04-22T18:15:30.910Z,10.13
2018-04-22T18:18:01.310Z,12.97
2018-04-22T18:20:30.840Z,14.03
2018-04-22T18:23:03.173Z,7.80
2018-04-22T18:25:31.016Z,13.47
2018-04-22T18:28:01.047Z,9.20
2018-04-22T18:30:27.335Z,15.10
2018-04-22T18:33:01.412Z,9.53
2018-04-22T18:35:30.915Z,8.27
2018-04-22T18:38:03.082Z,9.10
2018-04-22T18:40:32.120Z,9.30
2018-04-22T18:43:01.696Z,21.40
2018-04-22T18:45:31.962Z,6.43
2018-04-22T18:48:01.216Z,8.37
2018-04-22T18:50:31.579Z,16.20
2018-04-22T18:53:01.804Z,8.67
2018-04-22T18:55:30.923Z,9.30
2018-04-22T18:58:03.203Z,12.83
2018-04-22T19:00:30.481Z,12.07
2018-04-22T19:03:00.708Z,12.83
2018-04-22T19:05:31.063Z,10.40
2018-04-22T19:08:00.472Z,18.07
2018-04-22T19:10:31.334Z,9.90
2018-04-22T19:13:00.710Z,10.10
2018-04-22T19:15:30.991Z,11.40
2018-04-22T19:18:04.075Z,12.27
2018-04-22T19:20:31.434Z,18.27
2018-04-22T19:23:01.896Z,10.43
2018-04-22T19:25:31.626Z,12.90
2018-04-22T19:28:00.842Z,12.80
2018-04-22T19:30:29.072Z,20.60
2018-04-22T19:33:01.500Z,12.03
2018-04-22T19:41:08.833Z,42.83
2018-04-22T19:43:37.152Z,27.80
2018-04-22T19:46:03.460Z,24.83
2018-04-22T19:48:31.504Z,45.57
2018-04-22T19:51:00.670Z,31.40
2018-04-22T19:53:27.376Z,38.27
2018-04-22T19:55:56.139Z,50.33
2018-04-22T19:58:24.661Z,101.33
2018-04-22T20:00:50.932Z,15.93
2018-04-22T20:03:17.364Z,10.27
2018-04-22T20:06:01.692Z,8.80
2018-04-22T20:08:28.046Z,13.80
2018-04-22T20:10:55.577Z,17.23
2018-04-22T20:13:21.943Z,13.00
2018-04-22T20:15:48.139Z,9.13
2018-04-22T20:18:14.395Z,11.87
2018-04-22T20:20:40.591Z,14.10
2018-04-22T20:23:07.950Z,9.73
2018-04-22T20:25:34.151Z,17.93
2018-04-22T20:28:01.290Z,23.90
2018-04-22T20:30:27.483Z,25.47
2018-04-22T20:32:53.742Z,223.43
2018-04-22T20:35:24.482Z,128.90
2018-04-22T20:37:50.799Z,15.83
2018-04-22T20:40:19.058Z,41.30
2018-04-22T20:42:45.480Z,19.70
2018-04-22T20:45:11.783Z,10.60
2018-04-22T20:47:37.999Z,13.57
2018-04-22T20:50:04.229Z,16.03
2018-04-22T20:52:30.813Z,12.63
2018-04-22T20:54:58.147Z,19.30
2018-04-22T20:57:24.510Z,9.23
2018-04-22T20:59:51.711Z,8.10
2018-04-22T21:02:17.945Z,15.27
2018-04-22T21:04:44.211Z,10.90
2018-04-22T21:07:11.535Z,11.80
2018-04-22T21:09:37.839Z,9.80
2018-04-22T21:12:04.087Z,9.90
2018-04-22T21:14:30.292Z,12.27
2018-04-22T21:16:57.069Z,12.90
2018-04-22T21:19:23.359Z,9.87
2018-04-22T21:21:49.624Z,11.40
2018-04-22T21:24:17.963Z,8.47
2018-04-22T21:26:44.366Z,8.33
2018-04-22T21:29:20.668Z,15.53
2018-04-22T21:31:46.974Z,14.63
2018-04-22T21:34:17.143Z,13.40
2018-04-22T21:36:43.372Z,15.83
2018-04-22T21:39:09.585Z,9.83
2018-04-22T21:41:35.861Z,14.20
2018-04-22T21:44:02.145Z,10.40
2018-04-22T21:46:29.124Z,13.93
2018-04-22T21:48:56.463Z,10.50
2018-04-22T21:51:30.818Z,9.83
2018-04-22T21:53:57.071Z,10.70
2018-04-22T21:56:23.285Z,11.53
2018-04-22T21:58:49.599Z,15.30
2018-04-22T22:01:15.841Z,15.77
2018-04-22T22:03:42.116Z,10.37
2018-04-22T22:06:08.357Z,11.80
2018-04-22T22:08:34.704Z,11.83
2018-04-22T22:11:01.046Z,17.13
2018-04-22T22:13:28.081Z,13.57
2018-04-22T22:15:54.319Z,13.73
2018-04-22T22:18:20.533Z,13.20
2018-04-22T22:20:46.835Z,14.00
2018-04-22T22:23:13.819Z,9.60
2018-04-22T22:25:40.073Z,8.60
2018-04-22T22:28:06.324Z,8.00
2018-04-22T22:30:32.616Z,9.20
2018-04-22T22:33:00.920Z,10.23
2018-04-22T22:35:30.538Z,15.17
2018-04-22T22:37:56.803Z,11.53
2018-04-22T22:40:36.323Z,78.90
2018-04-22T22:43:03.725Z,16.97
2018-04-22T22:45:30.928Z,18.13
2018-04-22T22:48:00.829Z,9.60
2018-04-22T22:50:27.133Z,12.57
2018-04-22T22:53:04.461Z,15.90
2018-04-22T22:55:30.748Z,14.73
2018-04-22T22:58:03.317Z,10.93
2018-04-22T23:00:30.802Z,7.30
2018-04-22T23:03:02.967Z,16.60
2018-04-22T23:05:31.449Z,13.10
2018-04-22T23:08:00.629Z,8.97
2018-04-22T23:13:31.239Z,10.73
2018-04-22T23:16:02.577Z,17.70
2018-04-22T23:18:30.740Z,15.67
2018-04-22T23:21:03.005Z,12.33
2018-04-22T23:23:32.648Z,15.57
2018-04-22T23:26:01.197Z,15.40
2018-04-22T23:28:31.547Z,13.63
2018-04-22T23:31:00.943Z,12.37
2018-04-22T23:33:31.327Z,12.27
2018-04-22T23:36:01.861Z,15.23
2018-04-22T23:38:32.520Z,18.37
2018-04-22T23:41:01.559Z,21.47
2018-04-22T23:43:31.859Z,14.03
2018-04-22T23:46:02.115Z,14.23
2018-04-22T23:48:32.314Z,9.17
2018-04-22T23:51:01.679Z,12.67
2018-04-22T23:53:32.920Z,15.70
2018-04-22T23:56:01.164Z,20.67
2018-04-22T23:58:30.988Z,11.50
